createdAt,value
2023-05-08T00:02:22.237Z,100804.81
2023-05-08T00:04:48.898Z,100810.03
2023-05-08T00:07:15.539Z,100814.53
2023-05-08T00:09:41.913Z,100807.56
2023-05-08T00:12:08.370Z,100809.81
2023-05-08T00:14:34.854Z,100807.16
2023-05-08T00:17:02.271Z,100806.16
2023-05-08T00:19:29.900Z,100807.47
2023-05-08T00:21:56.338Z,100804.00
2023-05-08T00:24:22.836Z,100805.63
2023-05-08T00:26:49.347Z,100806.84
2023-05-08T00:29:15.927Z,100810.47
2023-05-08T00:31:42.416Z,100804.69
2023-05-08T00:34:08.853Z,100800.25
2023-05-08T00:36:35.522Z,100802.78
2023-05-08T00:39:02.042Z,100797.72
2023-05-08T00:41:28.573Z,100796.28
2023-05-08T00:43:54.968Z,100789.44
2023-05-08T00:46:21.614Z,100802.78
2023-05-08T00:48:48.286Z,100793.97
2023-05-08T00:51:15.383Z,100804.59
2023-05-08T00:53:43.179Z,100802.88
2023-05-08T00:56:11.987Z,100805.84
2023-05-08T00:58:38.695Z,100800.34
2023-05-08T01:01:05.464Z,100802.44
2023-05-08T01:03:33.943Z,100806.69
2023-05-08T01:06:02.177Z,100800.84
2023-05-08T01:08:28.968Z,100798.78
2023-05-08T01:11:11.500Z,100805.44
2023-05-08T01:13:56.899Z,100801.84
2023-05-08T01:16:31.823Z,100802.59
2023-05-08T01:19:23.825Z,100803.25
2023-05-08T01:22:02.136Z,100806.63
2023-05-08T01:24:56.842Z,100804.75
2023-05-08T01:27:42.239Z,100806.78
2023-05-08T01:30:43.481Z,100812.16
2023-05-08T01:33:27.258Z,100808.72
2023-05-08T01:35:59.493Z,100817.81
2023-05-08T01:38:51.489Z,100821.63
2023-05-08T01:41:26.088Z,100822.16
2023-05-08T01:44:20.317Z,100822.09
2023-05-08T01:46:51.082Z,100819.16
2023-05-08T01:49:23.310Z,100820.66
2023-05-08T01:51:56.978Z,100815.22
2023-05-08T01:54:26.073Z,100824.88
2023-05-08T01:56:55.381Z,100818.88
2023-05-08T01:59:23.770Z,100815.75
2023-05-08T02:01:56.881Z,100819.56
2023-05-08T02:04:24.175Z,100825.16
2023-05-08T02:06:52.024Z,100815.66
2023-05-08T02:09:21.381Z,100816.56
2023-05-08T02:11:49.326Z,100812.50
2023-05-08T02:14:18.714Z,100810.66
2023-05-08T02:16:46.299Z,100817.00
2023-05-08T02:19:14.171Z,100814.97
2023-05-08T02:21:41.226Z,100813.59
2023-05-08T02:24:08.293Z,100816.47
2023-05-08T02:26:35.755Z,100818.81
2023-05-08T02:29:03.144Z,100814.41
2023-05-08T02:31:30.142Z,100821.34
2023-05-08T02:33:57.420Z,100819.84
2023-05-08T02:36:24.440Z,100827.09
2023-05-08T02:38:52.931Z,100817.31
2023-05-08T02:41:22.243Z,100816.84
2023-05-08T02:43:49.783Z,100828.06
2023-05-08T02:46:19.753Z,100821.53
2023-05-08T02:49:03.827Z,100822.94
2023-05-08T02:51:48.757Z,100825.72
2023-05-08T02:54:25.379Z,100821.72
2023-05-08T02:57:14.106Z,100831.28
2023-05-08T02:59:45.480Z,100827.81
2023-05-08T03:02:42.545Z,100831.69
2023-05-08T03:05:16.455Z,100828.41
2023-05-08T03:07:45.081Z,100843.91
2023-05-08T03:10:16.578Z,100839.78
2023-05-08T03:12:46.930Z,100852.72
2023-05-08T03:15:24.157Z,100844.50
2023-05-08T03:17:54.967Z,100841.78
2023-05-08T03:20:22.912Z,100836.63
2023-05-08T03:22:50.844Z,100840.16
2023-05-08T03:25:19.465Z,100826.94
2023-05-08T03:27:46.379Z,100829.69
2023-05-08T03:30:13.429Z,100821.06
2023-05-08T03:32:41.430Z,100829.03
2023-05-08T03:35:09.485Z,100821.06
2023-05-08T03:37:36.046Z,100835.09
2023-05-08T03:40:02.463Z,100829.56
2023-05-08T03:42:31.088Z,100828.31
2023-05-08T03:44:57.820Z,100827.84
2023-05-08T03:47:26.153Z,100835.56
2023-05-08T03:49:53.577Z,100839.81
2023-05-08T03:52:20.052Z,100843.69
2023-05-08T03:54:46.760Z,100837.28
2023-05-08T03:57:13.492Z,100836.47
2023-05-08T03:59:53.113Z,100837.06
2023-05-08T04:02:42.487Z,100845.56
2023-05-08T04:05:20.626Z,100842.59
2023-05-08T04:07:53.759Z,100846.31
2023-05-08T04:10:32.702Z,100847.63
2023-05-08T04:13:05.702Z,100848.69
2023-05-08T04:15:35.260Z,100851.97
2023-05-08T04:18:12.713Z,100853.38
2023-05-08T04:20:43.237Z,100848.16
2023-05-08T04:23:14.566Z,100851.06
2023-05-08T04:25:42.754Z,100863.41
2023-05-08T04:28:10.286Z,100856.81
2023-05-08T04:30:36.897Z,100853.97
2023-05-08T04:33:06.302Z,100861.91
2023-05-08T04:35:34.002Z,100865.13
2023-05-08T04:38:01.198Z,100867.00
2023-05-08T04:40:27.814Z,100874.78
2023-05-08T04:42:55.379Z,100867.22
2023-05-08T04:45:22.116Z,100878.72
2023-05-08T04:47:49.582Z,100877.22
2023-05-08T04:50:16.022Z,100878.47
2023-05-08T04:52:43.081Z,100883.00
2023-05-08T04:55:10.256Z,100885.59
2023-05-08T04:57:36.820Z,100883.13
2023-05-08T05:00:06.070Z,100886.75
2023-05-08T05:02:32.729Z,100884.31
2023-05-08T05:05:01.441Z,100889.75
2023-05-08T05:07:28.085Z,100885.16
2023-05-08T05:09:54.647Z,100881.78
2023-05-08T05:12:21.285Z,100886.72
2023-05-08T05:14:47.685Z,100884.50
2023-05-08T05:17:14.338Z,100881.56
2023-05-08T05:19:40.728Z,100884.41
2023-05-08T05:22:08.162Z,100889.69
2023-05-08T05:24:36.109Z,100883.69
2023-05-08T05:27:02.877Z,100886.22
2023-05-08T05:29:30.282Z,100878.06
2023-05-08T05:31:56.895Z,100885.59
2023-05-08T05:34:23.461Z,100886.16
2023-05-08T05:36:49.962Z,100893.78
2023-05-08T05:39:16.412Z,100891.63
2023-05-08T05:41:44.316Z,100882.94
2023-05-08T05:44:11.314Z,100893.50
2023-05-08T05:46:37.790Z,100882.78
2023-05-08T05:49:04.219Z,100881.72
2023-05-08T05:51:30.645Z,100891.78
2023-05-08T05:53:57.213Z,100897.97
2023-05-08T05:56:23.700Z,100890.41
2023-05-08T05:58:50.345Z,100894.09
2023-05-08T06:01:17.173Z,100902.28
2023-05-08T06:03:44.163Z,100897.16
2023-05-08T06:06:11.174Z,100893.00
2023-05-08T06:08:37.714Z,100900.81
2023-05-08T06:11:04.334Z,100892.88
2023-05-08T06:13:31.529Z,100900.13
2023-05-08T06:15:58.343Z,100894.69
2023-05-08T06:18:24.833Z,100890.69
2023-05-08T06:21:00.393Z,100899.88
2023-05-08T06:23:27.114Z,100893.84
2023-05-08T06:25:54.165Z,100898.16
2023-05-08T06:28:22.456Z,100904.25
2023-05-08T06:30:48.909Z,100888.34
2023-05-08T06:33:15.354Z,100894.16
2023-05-08T06:35:41.721Z,100907.94
2023-05-08T06:38:08.362Z,100893.22
2023-05-08T06:40:34.848Z,100901.84
2023-05-08T06:43:01.405Z,100905.97
2023-05-08T06:45:27.926Z,100900.16
2023-05-08T06:47:54.475Z,100898.78
2023-05-08T06:50:21.105Z,100907.41
2023-05-08T06:52:47.591Z,100913.75
2023-05-08T06:55:15.105Z,100899.59
2023-05-08T06:57:41.903Z,100898.03
2023-05-08T07:00:09.773Z,100896.03
2023-05-08T07:02:36.244Z,100898.28
2023-05-08T07:05:03.417Z,100891.16
2023-05-08T07:07:30.501Z,100898.56
2023-05-08T07:09:57.039Z,100882.34
2023-05-08T07:12:23.700Z,100895.72
2023-05-08T07:14:50.351Z,100891.47
2023-05-08T07:17:16.827Z,100891.97
2023-05-08T07:19:43.294Z,100903.28
2023-05-08T07:22:09.713Z,100895.03
2023-05-08T07:24:36.429Z,100893.72
2023-05-08T07:27:03.167Z,100898.69
2023-05-08T07:29:29.684Z,100902.69
2023-05-08T07:31:56.331Z,100897.81
2023-05-08T07:34:22.862Z,100891.22
2023-05-08T07:36:49.986Z,100901.41
2023-05-08T07:39:16.526Z,100898.31
2023-05-08T07:41:43.236Z,100899.22
2023-05-08T07:44:09.926Z,100898.03
2023-05-08T07:46:37.262Z,100898.84
2023-05-08T07:49:03.917Z,100892.41
2023-05-08T07:51:30.358Z,100892.81
2023-05-08T07:53:56.826Z,100893.09
2023-05-08T07:56:23.769Z,100883.56
2023-05-08T07:58:50.382Z,100884.81
2023-05-08T08:01:18.287Z,100890.47
2023-05-08T08:03:46.078Z,100891.13
2023-05-08T08:06:12.790Z,100891.09
2023-05-08T08:08:39.462Z,100896.88
2023-05-08T08:11:07.090Z,100895.09
2023-05-08T08:13:33.725Z,100893.03
2023-05-08T08:16:01.634Z,100886.63
2023-05-08T08:18:28.560Z,100899.63
2023-05-08T08:20:55.252Z,100898.16
2023-05-08T08:23:21.913Z,100892.34
2023-05-08T08:25:48.591Z,100886.19
2023-05-08T08:28:15.097Z,100891.28
2023-05-08T08:30:41.835Z,100891.00
2023-05-08T08:33:08.460Z,100893.34
2023-05-08T08:35:34.980Z,100892.09
2023-05-08T08:38:01.575Z,100884.38
2023-05-08T08:40:28.501Z,100881.19
2023-05-08T08:42:55.839Z,100886.69
2023-05-08T08:45:22.487Z,100880.72
2023-05-08T08:47:52.249Z,100881.66
2023-05-08T08:50:19.626Z,100883.81
2023-05-08T08:53:02.950Z,100882.78
2023-05-08T08:55:29.934Z,100897.13
2023-05-08T08:58:18.104Z,100890.88
2023-05-08T09:00:44.629Z,100880.88
2023-05-08T09:03:11.182Z,100880.00
2023-05-08T09:05:38.648Z,100879.97
2023-05-08T09:08:06.058Z,100874.41
2023-05-08T09:10:32.893Z,100884.59
2023-05-08T09:12:59.523Z,100874.50
2023-05-08T09:15:25.989Z,100867.16
2023-05-08T09:17:52.410Z,100870.53
2023-05-08T09:20:19.183Z,100867.97
2023-05-08T09:22:46.008Z,100871.31
2023-05-08T09:25:12.893Z,100857.63
2023-05-08T09:27:39.900Z,100872.56
2023-05-08T09:30:08.570Z,100869.00
2023-05-08T09:32:36.914Z,100865.41
2023-05-08T09:35:04.063Z,100858.03
2023-05-08T09:37:30.960Z,100859.47
2023-05-08T09:40:20.908Z,100856.03
2023-05-08T09:42:48.979Z,100873.03
2023-05-08T09:45:32.311Z,100853.63
2023-05-08T09:47:59.172Z,100847.13
2023-05-08T09:50:25.858Z,100846.66
2023-05-08T09:52:52.737Z,100853.72
2023-05-08T09:55:19.323Z,100850.94
2023-05-08T09:57:59.169Z,100847.72
2023-05-08T10:00:27.299Z,100845.94
2023-05-08T10:03:02.529Z,100849.09
2023-05-08T10:05:31.165Z,100846.72
2023-05-08T10:07:59.425Z,100848.44
2023-05-08T10:10:27.941Z,100842.66
2023-05-08T10:12:56.325Z,100843.88
2023-05-08T10:15:28.836Z,100848.59
2023-05-08T10:18:08.723Z,100852.41
2023-05-08T10:20:42.377Z,100854.81
2023-05-08T10:23:14.085Z,100844.56
2023-05-08T10:25:45.179Z,100845.94
2023-05-08T10:28:31.484Z,100842.38
2023-05-08T10:31:01.604Z,100838.38
2023-05-08T10:33:33.431Z,100839.41
2023-05-08T10:36:00.656Z,100840.75
2023-05-08T10:38:27.585Z,100832.22
2023-05-08T10:40:57.909Z,100825.31
2023-05-08T10:43:25.644Z,100828.25
2023-05-08T10:45:53.098Z,100833.63
2023-05-08T10:48:38.092Z,100820.28
2023-05-08T10:51:15.327Z,100813.28
2023-05-08T10:53:59.588Z,100827.78
2023-05-08T10:56:27.299Z,100815.16
2023-05-08T10:58:58.242Z,100829.19
2023-05-08T11:01:26.065Z,100813.19
2023-05-08T11:03:52.902Z,100815.94
2023-05-08T11:06:43.777Z,100806.63
2023-05-08T11:09:14.999Z,100818.38
2023-05-08T11:11:45.711Z,100807.41
2023-05-08T11:14:14.265Z,100807.09
2023-05-08T11:17:03.476Z,100815.19
2023-05-08T11:19:30.261Z,100804.28
2023-05-08T11:22:16.669Z,100805.16
2023-05-08T11:24:54.820Z,100803.91
2023-05-08T11:27:49.181Z,100806.66
2023-05-08T11:30:20.389Z,100800.22
2023-05-08T11:33:16.691Z,100793.19
2023-05-08T11:35:52.077Z,100797.25
2023-05-08T11:38:24.523Z,100795.88
2023-05-08T11:41:00.264Z,100794.97
2023-05-08T11:43:34.016Z,100794.09
2023-05-08T11:46:04.106Z,100792.91
2023-05-08T11:48:34.155Z,100794.47
2023-05-08T11:51:01.513Z,100785.63
2023-05-08T11:53:31.573Z,100786.03
2023-05-08T11:55:59.107Z,100782.84
2023-05-08T11:58:25.994Z,100776.72
2023-05-08T12:00:52.607Z,100773.50
2023-05-08T12:03:21.979Z,100781.00
2023-05-08T12:05:50.216Z,100778.19
2023-05-08T12:08:17.970Z,100776.59
2023-05-08T12:10:55.406Z,100783.28
2023-05-08T12:13:24.325Z,100783.41
2023-05-08T12:15:55.731Z,100787.09
2023-05-08T12:18:23.223Z,100768.81
2023-05-08T12:20:54.163Z,100768.59
2023-05-08T12:23:20.914Z,100770.34
2023-05-08T12:25:47.518Z,100769.59
2023-05-08T12:28:14.020Z,100765.25
2023-05-08T12:30:41.051Z,100754.97
2023-05-08T12:33:08.436Z,100760.13
2023-05-08T12:35:35.021Z,100769.22
2023-05-08T12:38:03.446Z,100756.06
2023-05-08T12:40:33.099Z,100763.50
2023-05-08T12:43:03.993Z,100762.16
2023-05-08T12:45:33.734Z,100758.69
2023-05-08T12:48:05.697Z,100758.88
2023-05-08T12:50:37.200Z,100758.69
2023-05-08T12:53:05.486Z,100748.03
2023-05-08T12:55:33.991Z,100744.19
2023-05-08T12:58:05.290Z,100756.03
2023-05-08T13:00:54.134Z,100740.94
2023-05-08T13:03:26.696Z,100755.78
2023-05-08T13:05:55.213Z,100753.22
2023-05-08T13:08:30.299Z,100756.13
2023-05-08T13:10:57.339Z,100746.72
2023-05-08T13:13:26.614Z,100752.50
2023-05-08T13:15:54.990Z,100752.41
2023-05-08T13:18:24.848Z,100746.75
2023-05-08T13:20:51.547Z,100742.75
2023-05-08T13:23:18.063Z,100734.81
2023-05-08T13:25:44.668Z,100728.63
2023-05-08T13:28:11.669Z,100729.72
2023-05-08T13:30:38.395Z,100723.63
2023-05-08T13:33:05.350Z,100721.44
2023-05-08T13:35:32.403Z,100713.19
2023-05-08T13:37:59.134Z,100710.44
2023-05-08T13:40:26.284Z,100711.72
2023-05-08T13:42:52.933Z,100714.47
2023-05-08T13:45:19.438Z,100712.25
2023-05-08T13:47:47.551Z,100710.13
2023-05-08T13:50:15.843Z,100706.72
2023-05-08T13:52:42.481Z,100705.91
2023-05-08T13:55:10.948Z,100708.25
2023-05-08T13:57:38.026Z,100697.81
2023-05-08T14:00:05.861Z,100699.41
2023-05-08T14:02:32.638Z,100698.28
2023-05-08T14:04:59.116Z,100702.34
2023-05-08T14:07:26.486Z,100699.09
2023-05-08T14:09:53.314Z,100702.34
2023-05-08T14:12:19.793Z,100710.75
2023-05-08T14:14:46.324Z,100695.81
2023-05-08T14:17:12.774Z,100698.16
2023-05-08T14:19:39.620Z,100699.53
2023-05-08T14:22:06.986Z,100700.66
2023-05-08T14:24:33.903Z,100701.53
2023-05-08T14:27:01.959Z,100694.63
2023-05-08T14:29:28.446Z,100694.16
2023-05-08T14:31:55.126Z,100696.66
2023-05-08T14:34:21.945Z,100675.66
2023-05-08T14:36:48.324Z,100680.88
2023-05-08T14:39:14.814Z,100681.69
2023-05-08T14:41:48.075Z,100689.38
2023-05-08T14:44:26.101Z,100674.78
2023-05-08T14:46:52.491Z,100670.72
2023-05-08T14:49:25.410Z,100669.13
2023-05-08T14:51:59.837Z,100669.97
2023-05-08T14:54:26.448Z,100664.31
2023-05-08T14:56:53.065Z,100673.19
2023-05-08T14:59:19.567Z,100675.63
2023-05-08T15:01:46.016Z,100677.66
2023-05-08T15:04:12.775Z,100672.34
2023-05-08T15:06:40.426Z,100673.22
2023-05-08T15:09:08.551Z,100673.19
2023-05-08T15:11:36.151Z,100671.97
2023-05-08T15:14:04.069Z,100665.09
2023-05-08T15:16:31.206Z,100672.34
2023-05-08T15:18:57.689Z,100661.44
2023-05-08T15:21:26.640Z,100656.97
2023-05-08T15:23:54.781Z,100658.63
2023-05-08T15:26:22.126Z,100648.91
2023-05-08T15:28:49.004Z,100654.91
2023-05-08T15:31:15.914Z,100663.25
2023-05-08T15:33:44.924Z,100645.47
2023-05-08T15:36:13.116Z,100665.78
2023-05-08T15:38:40.955Z,100660.13
2023-05-08T15:41:07.676Z,100663.97
2023-05-08T15:43:34.106Z,100661.34
2023-05-08T15:46:00.707Z,100659.69
2023-05-08T15:48:27.278Z,100652.03
2023-05-08T15:50:53.775Z,100667.00
2023-05-08T15:53:20.765Z,100656.81
2023-05-08T15:55:47.202Z,100660.03
2023-05-08T15:58:13.572Z,100656.03
2023-05-08T16:00:44.779Z,100655.41
2023-05-08T16:03:12.337Z,100650.06
2023-05-08T16:05:39.525Z,100639.56
2023-05-08T16:08:07.552Z,100638.00
2023-05-08T16:10:34.361Z,100630.94
2023-05-08T16:13:00.903Z,100629.81
2023-05-08T16:15:27.412Z,100643.94
2023-05-08T16:17:53.907Z,100631.59
2023-05-08T16:20:20.951Z,100647.44
2023-05-08T16:22:47.385Z,100643.75
2023-05-08T16:25:14.246Z,100642.66
2023-05-08T16:27:40.968Z,100639.34
2023-05-08T16:30:08.018Z,100632.00
2023-05-08T16:32:34.563Z,100636.16
2023-05-08T16:35:01.137Z,100637.84
2023-05-08T16:37:27.742Z,100638.88
2023-05-08T16:39:54.273Z,100631.44
2023-05-08T16:42:20.905Z,100633.66
2023-05-08T16:44:47.508Z,100635.94
2023-05-08T16:47:14.606Z,100633.94
2023-05-08T16:49:41.259Z,100628.94
2023-05-08T16:52:07.758Z,100640.72
2023-05-08T16:54:34.312Z,100645.16
2023-05-08T16:57:01.387Z,100636.94
2023-05-08T16:59:28.010Z,100644.56
2023-05-08T17:01:54.512Z,100650.41
2023-05-08T17:04:21.073Z,100640.97
2023-05-08T17:06:47.649Z,100648.81
2023-05-08T17:09:14.064Z,100645.38
2023-05-08T17:11:40.606Z,100643.06
2023-05-08T17:14:07.144Z,100639.44
2023-05-08T17:16:33.639Z,100644.56
2023-05-08T17:19:00.564Z,100643.34
2023-05-08T17:21:27.055Z,100641.25
2023-05-08T17:23:53.716Z,100645.63
2023-05-08T17:26:21.713Z,100645.53
2023-05-08T17:28:48.235Z,100648.41
2023-05-08T17:31:15.871Z,100655.09
2023-05-08T17:33:42.522Z,100655.22
2023-05-08T17:36:09.284Z,100661.00
2023-05-08T17:38:38.334Z,100660.13
2023-05-08T17:41:04.881Z,100656.63
2023-05-08T17:43:31.520Z,100650.41
2023-05-08T17:45:58.161Z,100655.91
2023-05-08T17:48:24.844Z,100662.72
2023-05-08T17:50:51.243Z,100663.31
2023-05-08T17:53:17.771Z,100663.19
2023-05-08T17:55:44.427Z,100662.84
2023-05-08T17:58:11.015Z,100661.88
2023-05-08T18:00:37.831Z,100661.63
2023-05-08T18:03:04.931Z,100669.97
2023-05-08T18:05:31.856Z,100676.06
2023-05-08T18:07:59.389Z,100670.63
2023-05-08T18:10:25.907Z,100674.97
2023-05-08T18:12:52.425Z,100682.69
2023-05-08T18:15:18.856Z,100686.81
2023-05-08T18:17:45.249Z,100688.63
2023-05-08T18:20:12.447Z,100695.75
2023-05-08T18:22:39.330Z,100693.56
2023-05-08T18:25:06.318Z,100691.66
2023-05-08T18:27:34.360Z,100689.03
2023-05-08T18:30:00.975Z,100703.22
2023-05-08T18:32:27.427Z,100698.69
2023-05-08T18:34:54.204Z,100696.41
2023-05-08T18:37:20.682Z,100699.34
2023-05-08T18:39:47.440Z,100700.56
2023-05-08T18:42:14.039Z,100703.25
2023-05-08T18:44:40.996Z,100699.66
2023-05-08T18:47:07.552Z,100708.19
2023-05-08T18:49:34.046Z,100707.63
2023-05-08T18:52:00.586Z,100718.72
2023-05-08T18:54:27.148Z,100709.88
2023-05-08T18:56:54.222Z,100720.34
2023-05-08T18:59:21.671Z,100720.59
2023-05-08T19:01:49.982Z,100732.00
2023-05-08T19:04:16.849Z,100729.22
2023-05-08T19:06:43.453Z,100737.16
2023-05-08T19:09:10.114Z,100733.00
2023-05-08T19:11:36.815Z,100736.44
2023-05-08T19:14:03.456Z,100738.34
2023-05-08T19:16:30.004Z,100741.94
2023-05-08T19:18:56.621Z,100739.59
2023-05-08T19:21:23.792Z,100738.31
2023-05-08T19:23:50.665Z,100743.31
2023-05-08T19:26:18.112Z,100739.47
2023-05-08T19:28:44.593Z,100739.00
2023-05-08T19:31:11.079Z,100744.84
2023-05-08T19:33:37.605Z,100741.88
2023-05-08T19:36:04.112Z,100738.94
2023-05-08T19:38:31.039Z,100749.56
2023-05-08T19:40:58.115Z,100740.34
2023-05-08T19:43:27.584Z,100740.00
2023-05-08T19:45:55.259Z,100737.03
2023-05-08T19:48:21.962Z,100735.09
2023-05-08T19:50:48.608Z,100740.59
2023-05-08T19:53:15.206Z,100735.34
2023-05-08T19:55:41.723Z,100744.50
2023-05-08T19:58:08.156Z,100742.63
2023-05-08T20:00:35.320Z,100750.88
2023-05-08T20:03:02.057Z,100750.16
2023-05-08T20:05:28.706Z,100756.75
2023-05-08T20:07:55.302Z,100751.50
2023-05-08T20:10:22.449Z,100749.44
2023-05-08T20:12:49.242Z,100756.53
2023-05-08T20:15:15.900Z,100753.13
2023-05-08T20:17:42.894Z,100750.59
2023-05-08T20:20:10.216Z,100752.75
2023-05-08T20:22:37.774Z,100759.56
2023-05-08T20:25:05.165Z,100754.25
2023-05-08T20:27:32.118Z,100763.78
2023-05-08T20:29:58.726Z,100753.00
2023-05-08T20:32:25.312Z,100759.59
2023-05-08T20:34:51.951Z,100752.03
2023-05-08T20:37:18.506Z,100750.28
2023-05-08T20:39:45.297Z,100753.13
2023-05-08T20:42:11.854Z,100755.31
2023-05-08T20:44:38.599Z,100757.00
2023-05-08T20:47:05.136Z,100754.28
2023-05-08T20:49:31.792Z,100752.84
2023-05-08T20:51:58.565Z,100748.53
2023-05-08T20:54:25.018Z,100752.75
2023-05-08T20:56:51.436Z,100756.69
2023-05-08T20:59:18.779Z,100749.63
2023-05-08T21:01:46.754Z,100746.25
2023-05-08T21:04:13.288Z,100747.38
2023-05-08T21:06:39.970Z,100739.34
2023-05-08T21:09:07.193Z,100751.25
2023-05-08T21:11:33.731Z,100745.75
2023-05-08T21:14:00.194Z,100745.25
2023-05-08T21:16:27.019Z,100743.66
2023-05-08T21:18:55.370Z,100748.75
2023-05-08T21:21:23.254Z,100739.78
2023-05-08T21:23:49.679Z,100745.53
2023-05-08T21:26:16.177Z,100740.00
2023-05-08T21:28:42.625Z,100744.13
2023-05-08T21:31:09.280Z,100728.19
2023-05-08T21:33:36.531Z,100730.66
2023-05-08T21:36:03.160Z,100726.06
2023-05-08T21:38:29.783Z,100728.53
2023-05-08T21:40:56.476Z,100730.38
2023-05-08T21:43:22.985Z,100733.81
2023-05-08T21:45:49.355Z,100725.66
2023-05-08T21:48:15.870Z,100737.13
2023-05-08T21:50:42.334Z,100732.72
2023-05-08T21:53:08.798Z,100740.88
2023-05-08T21:55:35.498Z,100730.09
2023-05-08T21:58:01.991Z,100741.88
2023-05-08T22:00:28.864Z,100737.47
2023-05-08T22:02:55.738Z,100734.84
2023-05-08T22:05:24.423Z,100739.91
2023-05-08T22:07:51.055Z,100741.81
2023-05-08T22:10:17.622Z,100743.59
2023-05-08T22:12:44.198Z,100740.97
2023-05-08T22:15:25.505Z,100734.25
2023-05-08T22:17:55.970Z,100740.13
2023-05-08T22:20:22.779Z,100736.16
2023-05-08T22:22:49.313Z,100735.16
2023-05-08T22:25:16.162Z,100732.34
2023-05-08T22:27:42.800Z,100739.38
2023-05-08T22:30:09.507Z,100728.28
2023-05-08T22:32:36.617Z,100723.88
2023-05-08T22:35:03.137Z,100724.75
2023-05-08T22:37:30.474Z,100728.91
2023-05-08T22:39:56.966Z,100723.72
2023-05-08T22:42:24.008Z,100720.38
2023-05-08T22:44:50.667Z,100714.50
2023-05-08T22:47:17.317Z,100720.03
2023-05-08T22:49:43.841Z,100713.69
2023-05-08T22:52:10.411Z,100712.53
2023-05-08T22:54:37.005Z,100711.25
2023-05-08T22:57:03.903Z,100714.66
2023-05-08T22:59:30.575Z,100714.31
2023-05-08T23:01:56.974Z,100713.31
2023-05-08T23:04:23.407Z,100712.97
2023-05-08T23:06:49.979Z,100709.88
2023-05-08T23:09:16.553Z,100707.09
2023-05-08T23:11:43.036Z,100713.00
2023-05-08T23:14:09.583Z,100708.94
2023-05-08T23:16:36.672Z,100708.94
2023-05-08T23:19:04.648Z,100709.09
2023-05-08T23:21:32.213Z,100708.78
2023-05-08T23:23:59.549Z,100709.44
2023-05-08T23:26:26.429Z,100706.50
2023-05-08T23:28:53.111Z,100704.25
2023-05-08T23:31:19.815Z,100707.03
2023-05-08T23:33:46.458Z,100707.69
2023-05-08T23:36:13.371Z,100704.91
2023-05-08T23:38:40.571Z,100700.16
2023-05-08T23:41:07.788Z,100706.88
2023-05-08T23:43:34.218Z,100702.94
2023-05-08T23:46:00.759Z,100694.94
2023-05-08T23:48:27.707Z,100691.00
2023-05-08T23:50:54.206Z,100700.81
2023-05-08T23:53:21.155Z,100686.59
2023-05-08T23:55:52.508Z,100687.91
2023-05-08T23:58:19.030Z,100692.81
